sensor_id;sensor_type;location;lat;lon;timestamp;P1;durP1;ratioP1;P2;durP2;ratioP2
52480;SDS011;38393;52.404;13.532;2023-07-30T00:00:01;11.25;;;7.50;;
52480;SDS011;38393;52.404;13.532;2023-07-30T00:02:27;12.60;;;7.15;;
52480;SDS011;38393;52.404;13.532;2023-07-30T00:04:53;11.00;;;7.22;;
52480;SDS011;38393;52.404;13.532;2023-07-30T00:07:19;10.75;;;7.13;;
52480;SDS011;38393;52.404;13.532;2023-07-30T00:09:44;8.15;;;6.82;;
52480;SDS011;38393;52.404;13.532;2023-07-30T00:12:10;9.07;;;7.00;;
52480;SDS011;38393;52.404;13.532;2023-07-30T00:14:35;8.80;;;6.95;;
52480;SDS011;38393;52.404;13.532;2023-07-30T00:17:01;7.75;;;6.60;;
52480;SDS011;38393;52.404;13.532;2023-07-30T00:19:27;9.73;;;6.30;;
52480;SDS011;38393;52.404;13.532;2023-07-30T00:21:53;9.88;;;6.22;;
52480;SDS011;38393;52.404;13.532;2023-07-30T00:24:18;11.57;;;6.45;;
52480;SDS011;38393;52.404;13.532;2023-07-30T00:26:44;7.93;;;6.22;;
52480;SDS011;38393;52.404;13.532;2023-07-30T00:29:09;9.60;;;6.47;;
52480;SDS011;38393;52.404;13.532;2023-07-30T00:31:36;9.02;;;5.90;;
52480;SDS011;38393;52.404;13.532;2023-07-30T00:34:01;8.05;;;6.72;;
52480;SDS011;38393;52.404;13.532;2023-07-30T00:36:27;12.32;;;6.43;;
52480;SDS011;38393;52.404;13.532;2023-07-30T00:38:53;9.77;;;6.55;;
52480;SDS011;38393;52.404;13.532;2023-07-30T00:41:18;7.20;;;5.93;;
52480;SDS011;38393;52.404;13.532;2023-07-30T00:43:43;12.23;;;6.25;;
52480;SDS011;38393;52.404;13.532;2023-07-30T00:46:10;9.65;;;6.07;;
52480;SDS011;38393;52.404;13.532;2023-07-30T00:48:36;8.88;;;6.30;;
52480;SDS011;38393;52.404;13.532;2023-07-30T00:51:02;25.50;;;15.57;;
52480;SDS011;38393;52.404;13.532;2023-07-30T00:53:28;31.55;;;22.33;;
52480;SDS011;38393;52.404;13.532;2023-07-30T00:55:54;25.73;;;14.73;;
52480;SDS011;38393;52.404;13.532;2023-07-30T00:58:22;20.33;;;14.98;;
52480;SDS011;38393;52.404;13.532;2023-07-30T01:00:48;14.32;;;9.18;;
52480;SDS011;38393;52.404;13.532;2023-07-30T01:03:16;13.82;;;7.72;;
52480;SDS011;38393;52.404;13.532;2023-07-30T01:05:43;10.25;;;6.45;;
52480;SDS011;38393;52.404;13.532;2023-07-30T01:08:09;8.13;;;6.53;;
52480;SDS011;38393;52.404;13.532;2023-07-30T01:10:35;7.50;;;5.90;;
52480;SDS011;38393;52.404;13.532;2023-07-30T01:13:02;9.73;;;6.00;;
52480;SDS011;38393;52.404;13.532;2023-07-30T01:15:30;8.40;;;6.15;;
52480;SDS011;38393;52.404;13.532;2023-07-30T01:17:56;13.05;;;6.22;;
52480;SDS011;38393;52.404;13.532;2023-07-30T01:20:22;8.82;;;6.45;;
52480;SDS011;38393;52.404;13.532;2023-07-30T01:22:47;10.20;;;6.80;;
52480;SDS011;38393;52.404;13.532;2023-07-30T01:25:13;9.32;;;5.97;;
52480;SDS011;38393;52.404;13.532;2023-07-30T01:27:40;14.93;;;6.50;;
52480;SDS011;38393;52.404;13.532;2023-07-30T01:30:14;10.45;;;6.22;;
52480;SDS011;38393;52.404;13.532;2023-07-30T01:32:49;12.05;;;6.30;;
52480;SDS011;38393;52.404;13.532;2023-07-30T01:35:17;13.05;;;6.53;;
52480;SDS011;38393;52.404;13.532;2023-07-30T01:37:46;8.00;;;6.18;;
52480;SDS011;38393;52.404;13.532;2023-07-30T01:40:14;21.13;;;12.70;;
52480;SDS011;38393;52.404;13.532;2023-07-30T01:42:40;12.50;;;8.40;;
52480;SDS011;38393;52.404;13.532;2023-07-30T01:45:06;25.48;;;12.10;;
52480;SDS011;38393;52.404;13.532;2023-07-30T01:47:32;13.68;;;8.02;;
52480;SDS011;38393;52.404;13.532;2023-07-30T01:49:57;9.15;;;7.22;;
52480;SDS011;38393;52.404;13.532;2023-07-30T01:52:23;12.98;;;6.85;;
52480;SDS011;38393;52.404;13.532;2023-07-30T01:54:48;11.57;;;6.70;;
52480;SDS011;38393;52.404;13.532;2023-07-30T01:57:14;10.80;;;6.50;;
52480;SDS011;38393;52.404;13.532;2023-07-30T01:59:40;10.77;;;6.82;;
52480;SDS011;38393;52.404;13.532;2023-07-30T02:02:05;7.93;;;6.20;;
52480;SDS011;38393;52.404;13.532;2023-07-30T02:04:32;10.98;;;6.68;;
52480;SDS011;38393;52.404;13.532;2023-07-30T02:06:57;12.00;;;6.43;;
52480;SDS011;38393;52.404;13.532;2023-07-30T02:09:23;10.13;;;6.78;;
52480;SDS011;38393;52.404;13.532;2023-07-30T02:11:48;10.27;;;6.15;;
52480;SDS011;38393;52.404;13.532;2023-07-30T02:14:14;7.97;;;6.32;;
52480;SDS011;38393;52.404;13.532;2023-07-30T02:16:40;11.90;;;6.97;;
52480;SDS011;38393;52.404;13.532;2023-07-30T02:19:05;9.57;;;6.40;;
52480;SDS011;38393;52.404;13.532;2023-07-30T02:21:31;11.30;;;6.28;;
52480;SDS011;38393;52.404;13.532;2023-07-30T02:23:58;12.27;;;6.05;;
52480;SDS011;38393;52.404;13.532;2023-07-30T02:26:24;11.73;;;6.15;;
52480;SDS011;38393;52.404;13.532;2023-07-30T02:28:49;7.50;;;6.45;;
52480;SDS011;38393;52.404;13.532;2023-07-30T02:31:15;9.73;;;6.15;;
52480;SDS011;38393;52.404;13.532;2023-07-30T02:33:40;8.23;;;6.55;;
52480;SDS011;38393;52.404;13.532;2023-07-30T02:36:06;12.10;;;6.50;;
52480;SDS011;38393;52.404;13.532;2023-07-30T02:38:31;10.80;;;6.90;;
52480;SDS011;38393;52.404;13.532;2023-07-30T02:40:57;7.72;;;6.28;;
52480;SDS011;38393;52.404;13.532;2023-07-30T02:43:22;8.60;;;6.30;;
52480;SDS011;38393;52.404;13.532;2023-07-30T02:45:48;8.43;;;6.20;;
52480;SDS011;38393;52.404;13.532;2023-07-30T02:48:14;8.60;;;6.43;;
52480;SDS011;38393;52.404;13.532;2023-07-30T02:50:39;8.00;;;6.15;;
52480;SDS011;38393;52.404;13.532;2023-07-30T02:53:05;10.93;;;6.65;;
52480;SDS011;38393;52.404;13.532;2023-07-30T02:55:31;8.43;;;6.38;;
52480;SDS011;38393;52.404;13.532;2023-07-30T02:57:56;10.77;;;6.40;;
52480;SDS011;38393;52.404;13.532;2023-07-30T03:00:22;10.02;;;6.97;;
52480;SDS011;38393;52.404;13.532;2023-07-30T03:02:47;10.67;;;6.90;;
52480;SDS011;38393;52.404;13.532;2023-07-30T03:05:12;9.00;;;6.60;;
52480;SDS011;38393;52.404;13.532;2023-07-30T03:07:38;13.43;;;7.13;;
52480;SDS011;38393;52.404;13.532;2023-07-30T03:10:03;9.77;;;6.70;;
52480;SDS011;38393;52.404;13.532;2023-07-30T03:12:29;9.43;;;6.80;;
52480;SDS011;38393;52.404;13.532;2023-07-30T03:14:55;8.00;;;6.57;;
52480;SDS011;38393;52.404;13.532;2023-07-30T03:17:20;9.53;;;6.50;;
52480;SDS011;38393;52.404;13.532;2023-07-30T03:19:46;11.37;;;6.93;;
52480;SDS011;38393;52.404;13.532;2023-07-30T03:22:12;8.73;;;7.00;;
52480;SDS011;38393;52.404;13.532;2023-07-30T03:24:37;11.13;;;6.80;;
52480;SDS011;38393;52.404;13.532;2023-07-30T03:27:02;9.20;;;6.70;;
52480;SDS011;38393;52.404;13.532;2023-07-30T03:29:28;9.77;;;7.25;;
52480;SDS011;38393;52.404;13.532;2023-07-30T03:31:54;7.70;;;6.67;;
52480;SDS011;38393;52.404;13.532;2023-07-30T03:34:19;10.20;;;6.73;;
52480;SDS011;38393;52.404;13.532;2023-07-30T03:36:44;9.60;;;6.80;;
52480;SDS011;38393;52.404;13.532;2023-07-30T03:39:10;13.87;;;7.53;;
52480;SDS011;38393;52.404;13.532;2023-07-30T03:41:35;17.03;;;8.13;;
52480;SDS011;38393;52.404;13.532;2023-07-30T03:44:01;11.67;;;7.50;;
52480;SDS011;38393;52.404;13.532;2023-07-30T03:46:27;16.70;;;8.50;;
52480;SDS011;38393;52.404;13.532;2023-07-30T03:48:52;12.10;;;8.57;;
52480;SDS011;38393;52.404;13.532;2023-07-30T03:51:17;18.93;;;9.60;;
52480;SDS011;38393;52.404;13.532;2023-07-30T03:53:43;13.50;;;10.00;;
52480;SDS011;38393;52.404;13.532;2023-07-30T03:56:09;17.57;;;9.93;;
52480;SDS011;38393;52.404;13.532;2023-07-30T03:58:34;15.07;;;9.80;;
52480;SDS011;38393;52.404;13.532;2023-07-30T04:01:00;15.95;;;11.10;;
52480;SDS011;38393;52.404;13.532;2023-07-30T04:03:26;14.60;;;11.15;;
52480;SDS011;38393;52.404;13.532;2023-07-30T04:05:52;15.25;;;11.07;;
52480;SDS011;38393;52.404;13.532;2023-07-30T04:08:17;13.30;;;9.95;;
52480;SDS011;38393;52.404;13.532;2023-07-30T04:10:43;15.40;;;12.15;;
52480;SDS011;38393;52.404;13.532;2023-07-30T04:13:08;12.95;;;10.82;;
52480;SDS011;38393;52.404;13.532;2023-07-30T04:15:34;13.68;;;10.88;;
52480;SDS011;38393;52.404;13.532;2023-07-30T04:17:59;14.63;;;11.50;;
52480;SDS011;38393;52.404;13.532;2023-07-30T04:20:25;14.38;;;11.07;;
52480;SDS011;38393;52.404;13.532;2023-07-30T04:22:51;15.48;;;11.95;;
52480;SDS011;38393;52.404;13.532;2023-07-30T04:25:17;13.18;;;10.50;;
52480;SDS011;38393;52.404;13.532;2023-07-30T04:27:42;14.55;;;10.57;;
52480;SDS011;38393;52.404;13.532;2023-07-30T04:30:08;14.02;;;12.23;;
52480;SDS011;38393;52.404;13.532;2023-07-30T04:32:33;16.08;;;13.32;;
52480;SDS011;38393;52.404;13.532;2023-07-30T04:34:59;13.95;;;10.43;;
52480;SDS011;38393;52.404;13.532;2023-07-30T04:37:26;12.38;;;9.90;;
52480;SDS011;38393;52.404;13.532;2023-07-30T04:39:51;14.05;;;9.82;;
52480;SDS011;38393;52.404;13.532;2023-07-30T04:42:17;12.07;;;10.35;;
52480;SDS011;38393;52.404;13.532;2023-07-30T04:44:42;13.43;;;9.95;;
52480;SDS011;38393;52.404;13.532;2023-07-30T04:47:08;12.18;;;10.13;;
52480;SDS011;38393;52.404;13.532;2023-07-30T04:49:34;11.70;;;10.07;;
52480;SDS011;38393;52.404;13.532;2023-07-30T04:52:00;12.35;;;9.15;;
52480;SDS011;38393;52.404;13.532;2023-07-30T04:54:25;10.65;;;8.80;;
52480;SDS011;38393;52.404;13.532;2023-07-30T04:56:51;12.35;;;9.27;;
52480;SDS011;38393;52.404;13.532;2023-07-30T04:59:16;11.30;;;8.68;;
52480;SDS011;38393;52.404;13.532;2023-07-30T05:01:41;12.32;;;9.05;;
52480;SDS011;38393;52.404;13.532;2023-07-30T05:04:07;10.55;;;8.65;;
52480;SDS011;38393;52.404;13.532;2023-07-30T05:06:32;10.10;;;8.50;;
52480;SDS011;38393;52.404;13.532;2023-07-30T05:08:58;8.70;;;7.80;;
52480;SDS011;38393;52.404;13.532;2023-07-30T05:11:23;12.40;;;7.97;;
52480;SDS011;38393;52.404;13.532;2023-07-30T05:13:49;9.57;;;8.52;;
52480;SDS011;38393;52.404;13.532;2023-07-30T05:16:14;10.35;;;7.93;;
52480;SDS011;38393;52.404;13.532;2023-07-30T05:18:40;10.93;;;8.85;;
52480;SDS011;38393;52.404;13.532;2023-07-30T05:21:05;8.10;;;7.30;;
52480;SDS011;38393;52.404;13.532;2023-07-30T05:23:31;9.05;;;6.63;;
52480;SDS011;38393;52.404;13.532;2023-07-30T05:25:56;8.65;;;7.60;;
52480;SDS011;38393;52.404;13.532;2023-07-30T05:28:22;8.35;;;6.78;;
52480;SDS011;38393;52.404;13.532;2023-07-30T05:30:47;9.60;;;7.20;;
52480;SDS011;38393;52.404;13.532;2023-07-30T05:33:12;13.25;;;6.95;;
52480;SDS011;38393;52.404;13.532;2023-07-30T05:35:38;8.75;;;7.63;;
52480;SDS011;38393;52.404;13.532;2023-07-30T05:38:03;9.95;;;7.50;;
52480;SDS011;38393;52.404;13.532;2023-07-30T05:40:29;9.20;;;7.32;;
52480;SDS011;38393;52.404;13.532;2023-07-30T05:42:54;8.93;;;6.72;;
52480;SDS011;38393;52.404;13.532;2023-07-30T05:45:20;8.38;;;7.53;;
52480;SDS011;38393;52.404;13.532;2023-07-30T05:47:45;10.35;;;8.13;;
52480;SDS011;38393;52.404;13.532;2023-07-30T05:50:11;10.75;;;7.68;;
52480;SDS011;38393;52.404;13.532;2023-07-30T05:52:36;8.30;;;7.50;;
52480;SDS011;38393;52.404;13.532;2023-07-30T05:55:02;11.80;;;7.80;;
52480;SDS011;38393;52.404;13.532;2023-07-30T05:57:27;8.45;;;7.55;;
52480;SDS011;38393;52.404;13.532;2023-07-30T05:59:53;10.43;;;7.30;;
52480;SDS011;38393;52.404;13.532;2023-07-30T06:02:18;9.20;;;7.57;;
52480;SDS011;38393;52.404;13.532;2023-07-30T06:04:44;10.63;;;6.72;;
52480;SDS011;38393;52.404;13.532;2023-07-30T06:07:09;7.63;;;6.82;;
52480;SDS011;38393;52.404;13.532;2023-07-30T06:09:35;9.50;;;7.10;;
52480;SDS011;38393;52.404;13.532;2023-07-30T06:12:01;8.50;;;6.25;;
52480;SDS011;38393;52.404;13.532;2023-07-30T06:14:27;10.05;;;6.75;;
52480;SDS011;38393;52.404;13.532;2023-07-30T06:16:52;7.63;;;6.82;;
52480;SDS011;38393;52.404;13.532;2023-07-30T06:19:18;11.00;;;6.40;;
52480;SDS011;38393;52.404;13.532;2023-07-30T06:21:44;7.72;;;6.18;;
52480;SDS011;38393;52.404;13.532;2023-07-30T06:24:09;5.90;;;5.28;;
52480;SDS011;38393;52.404;13.532;2023-07-30T06:26:35;6.22;;;5.43;;
52480;SDS011;38393;52.404;13.532;2023-07-30T06:29:00;8.52;;;5.80;;
52480;SDS011;38393;52.404;13.532;2023-07-30T06:31:26;8.43;;;5.30;;
52480;SDS011;38393;52.404;13.532;2023-07-30T06:33:52;7.10;;;5.53;;
52480;SDS011;38393;52.404;13.532;2023-07-30T06:36:17;8.15;;;6.20;;
52480;SDS011;38393;52.404;13.532;2023-07-30T06:38:43;10.07;;;5.80;;
52480;SDS011;38393;52.404;13.532;2023-07-30T06:41:08;6.45;;;5.72;;
52480;SDS011;38393;52.404;13.532;2023-07-30T06:43:33;8.05;;;6.05;;
52480;SDS011;38393;52.404;13.532;2023-07-30T06:45:59;8.95;;;6.10;;
52480;SDS011;38393;52.404;13.532;2023-07-30T06:48:25;6.20;;;5.60;;
52480;SDS011;38393;52.404;13.532;2023-07-30T06:50:50;6.63;;;5.32;;
52480;SDS011;38393;52.404;13.532;2023-07-30T06:53:16;6.57;;;5.63;;
52480;SDS011;38393;52.404;13.532;2023-07-30T06:55:41;8.10;;;5.85;;
52480;SDS011;38393;52.404;13.532;2023-07-30T06:58:07;6.50;;;5.80;;
52480;SDS011;38393;52.404;13.532;2023-07-30T07:00:32;8.77;;;6.15;;
52480;SDS011;38393;52.404;13.532;2023-07-30T07:02:58;6.25;;;5.45;;
52480;SDS011;38393;52.404;13.532;2023-07-30T07:05:23;9.35;;;5.60;;
52480;SDS011;38393;52.404;13.532;2023-07-30T07:07:49;6.45;;;5.50;;
52480;SDS011;38393;52.404;13.532;2023-07-30T07:10:14;7.00;;;5.75;;
52480;SDS011;38393;52.404;13.532;2023-07-30T07:12:40;6.35;;;5.75;;
52480;SDS011;38393;52.404;13.532;2023-07-30T07:15:06;6.25;;;4.95;;
52480;SDS011;38393;52.404;13.532;2023-07-30T07:17:32;8.10;;;5.43;;
52480;SDS011;38393;52.404;13.532;2023-07-30T07:19:57;5.10;;;4.60;;
52480;SDS011;38393;52.404;13.532;2023-07-30T07:22:23;8.95;;;4.93;;
52480;SDS011;38393;52.404;13.532;2023-07-30T07:24:49;6.90;;;5.32;;
52480;SDS011;38393;52.404;13.532;2023-07-30T07:27:17;6.88;;;4.75;;
52480;SDS011;38393;52.404;13.532;2023-07-30T07:29:43;5.72;;;4.90;;
52480;SDS011;38393;52.404;13.532;2023-07-30T07:32:08;6.40;;;4.80;;
52480;SDS011;38393;52.404;13.532;2023-07-30T07:34:34;5.47;;;4.88;;
52480;SDS011;38393;52.404;13.532;2023-07-30T07:37:00;7.97;;;4.60;;
52480;SDS011;38393;52.404;13.532;2023-07-30T07:39:26;4.93;;;4.43;;
52480;SDS011;38393;52.404;13.532;2023-07-30T07:41:52;5.47;;;4.30;;
52480;SDS011;38393;52.404;13.532;2023-07-30T07:44:17;6.80;;;4.47;;
52480;SDS011;38393;52.404;13.532;2023-07-30T07:46:42;8.25;;;4.47;;
52480;SDS011;38393;52.404;13.532;2023-07-30T07:49:08;6.35;;;3.85;;
52480;SDS011;38393;52.404;13.532;2023-07-30T07:51:33;6.03;;;4.32;;
52480;SDS011;38393;52.404;13.532;2023-07-30T07:53:59;6.80;;;3.90;;
52480;SDS011;38393;52.404;13.532;2023-07-30T07:56:24;9.70;;;3.70;;
52480;SDS011;38393;52.404;13.532;2023-07-30T07:58:50;8.30;;;3.80;;
52480;SDS011;38393;52.404;13.532;2023-07-30T08:01:15;7.63;;;3.63;;
52480;SDS011;38393;52.404;13.532;2023-07-30T08:03:41;6.03;;;3.90;;
52480;SDS011;38393;52.404;13.532;2023-07-30T08:06:06;4.68;;;3.85;;
52480;SDS011;38393;52.404;13.532;2023-07-30T08:08:32;5.72;;;3.75;;
52480;SDS011;38393;52.404;13.532;2023-07-30T08:10:57;5.82;;;4.05;;
52480;SDS011;38393;52.404;13.532;2023-07-30T08:13:23;6.30;;;3.95;;
52480;SDS011;38393;52.404;13.532;2023-07-30T08:15:51;8.18;;;4.30;;
52480;SDS011;38393;52.404;13.532;2023-07-30T08:18:16;5.78;;;4.25;;
52480;SDS011;38393;52.404;13.532;2023-07-30T08:20:42;6.60;;;4.03;;
52480;SDS011;38393;52.404;13.532;2023-07-30T08:23:07;5.15;;;3.95;;
52480;SDS011;38393;52.404;13.532;2023-07-30T08:25:33;8.48;;;3.72;;
52480;SDS011;38393;52.404;13.532;2023-07-30T08:27:58;4.78;;;4.07;;
52480;SDS011;38393;52.404;13.532;2023-07-30T08:30:24;7.75;;;3.55;;
52480;SDS011;38393;52.404;13.532;2023-07-30T08:32:49;4.03;;;3.00;;
52480;SDS011;38393;52.404;13.532;2023-07-30T08:35:15;4.53;;;2.95;;
52480;SDS011;38393;52.404;13.532;2023-07-30T08:37:40;3.78;;;2.65;;
52480;SDS011;38393;52.404;13.532;2023-07-30T08:40:06;4.63;;;2.60;;
52480;SDS011;38393;52.404;13.532;2023-07-30T08:42:32;5.22;;;3.30;;
52480;SDS011;38393;52.404;13.532;2023-07-30T08:44:57;6.65;;;2.80;;
52480;SDS011;38393;52.404;13.532;2023-07-30T08:47:24;6.47;;;3.90;;
52480;SDS011;38393;52.404;13.532;2023-07-30T09:40:21;3.47;;;2.53;;
52480;SDS011;38393;52.404;13.532;2023-07-30T09:42:59;3.20;;;2.65;;
52480;SDS011;38393;52.404;13.532;2023-07-30T09:45:25;3.72;;;2.33;;
52480;SDS011;38393;52.404;13.532;2023-07-30T09:47:51;3.75;;;2.53;;
52480;SDS011;38393;52.404;13.532;2023-07-30T09:50:17;5.50;;;2.50;;
52480;SDS011;38393;52.404;13.532;2023-07-30T09:52:43;4.85;;;2.20;;
52480;SDS011;38393;52.404;13.532;2023-07-30T09:55:10;3.95;;;2.40;;
52480;SDS011;38393;52.404;13.532;2023-07-30T09:57:36;4.05;;;2.50;;
52480;SDS011;38393;52.404;13.532;2023-07-30T10:00:03;4.18;;;2.40;;
52480;SDS011;38393;52.404;13.532;2023-07-30T10:02:30;3.42;;;2.40;;
52480;SDS011;38393;52.404;13.532;2023-07-30T10:04:57;3.00;;;2.13;;
52480;SDS011;38393;52.404;13.532;2023-07-30T10:07:24;4.60;;;2.58;;
52480;SDS011;38393;52.404;13.532;2023-07-30T10:09:53;4.20;;;2.30;;
52480;SDS011;38393;52.404;13.532;2023-07-30T10:12:24;5.28;;;2.35;;
52480;SDS011;38393;52.404;13.532;2023-07-30T10:14:55;3.10;;;2.35;;
52480;SDS011;38393;52.404;13.532;2023-07-30T10:17:21;3.85;;;2.22;;
52480;SDS011;38393;52.404;13.532;2023-07-30T10:19:47;3.67;;;2.40;;
52480;SDS011;38393;52.404;13.532;2023-07-30T10:22:23;2.45;;;2.25;;
52480;SDS011;38393;52.404;13.532;2023-07-30T10:24:57;3.58;;;2.50;;
52480;SDS011;38393;52.404;13.532;2023-07-30T10:27:24;5.07;;;2.53;;
52480;SDS011;38393;52.404;13.532;2023-07-30T10:32:39;3.33;;;2.17;;
52480;SDS011;38393;52.404;13.532;2023-07-30T10:35:05;8.55;;;1.98;;
52480;SDS011;38393;52.404;13.532;2023-07-30T10:37:31;4.20;;;1.95;;
52480;SDS011;38393;52.404;13.532;2023-07-30T10:39:56;4.22;;;2.30;;
52480;SDS011;38393;52.404;13.532;2023-07-30T10:42:22;4.18;;;1.98;;
52480;SDS011;38393;52.404;13.532;2023-07-30T10:44:48;3.80;;;2.40;;
52480;SDS011;38393;52.404;13.532;2023-07-30T10:47:14;6.07;;;2.28;;
52480;SDS011;38393;52.404;13.532;2023-07-30T10:49:40;3.10;;;2.10;;
52480;SDS011;38393;52.404;13.532;2023-07-30T10:52:06;5.72;;;2.95;;
52480;SDS011;38393;52.404;13.532;2023-07-30T10:54:38;4.13;;;2.20;;
52480;SDS011;38393;52.404;13.532;2023-07-30T10:57:04;6.05;;;2.25;;
52480;SDS011;38393;52.404;13.532;2023-07-30T10:59:36;4.63;;;2.20;;
52480;SDS011;38393;52.404;13.532;2023-07-30T11:02:02;3.60;;;2.00;;
52480;SDS011;38393;52.404;13.532;2023-07-30T11:04:28;4.43;;;2.17;;
52480;SDS011;38393;52.404;13.532;2023-07-30T11:06:58;3.38;;;2.10;;
52480;SDS011;38393;52.404;13.532;2023-07-30T11:09:24;5.88;;;2.10;;
52480;SDS011;38393;52.404;13.532;2023-07-30T11:11:51;5.35;;;2.30;;
52480;SDS011;38393;52.404;13.532;2023-07-30T11:14:21;4.75;;;2.50;;
52480;SDS011;38393;52.404;13.532;2023-07-30T11:16:50;6.22;;;2.30;;
52480;SDS011;38393;52.404;13.532;2023-07-30T11:19:17;4.70;;;2.10;;
52480;SDS011;38393;52.404;13.532;2023-07-30T11:21:49;3.67;;;2.00;;
52480;SDS011;38393;52.404;13.532;2023-07-30T11:24:15;5.45;;;2.10;;
52480;SDS011;38393;52.404;13.532;2023-07-30T11:26:42;6.07;;;2.28;;
52480;SDS011;38393;52.404;13.532;2023-07-30T11:29:14;6.35;;;2.53;;
52480;SDS011;38393;52.404;13.532;2023-07-30T11:31:41;4.70;;;2.65;;
52480;SDS011;38393;52.404;13.532;2023-07-30T11:34:08;5.22;;;2.40;;
52480;SDS011;38393;52.404;13.532;2023-07-30T11:36:34;3.38;;;1.80;;
52480;SDS011;38393;52.404;13.532;2023-07-30T11:38:59;3.97;;;1.88;;
52480;SDS011;38393;52.404;13.532;2023-07-30T11:41:25;7.28;;;2.00;;
52480;SDS011;38393;52.404;13.532;2023-07-30T11:43:51;3.97;;;2.10;;
52480;SDS011;38393;52.404;13.532;2023-07-30T11:46:17;4.32;;;2.05;;
52480;SDS011;38393;52.404;13.532;2023-07-30T11:48:46;5.05;;;1.83;;
52480;SDS011;38393;52.404;13.532;2023-07-30T11:51:22;5.45;;;1.92;;
52480;SDS011;38393;52.404;13.532;2023-07-30T11:56:25;4.25;;;2.00;;
52480;SDS011;38393;52.404;13.532;2023-07-30T11:59:13;3.63;;;1.77;;
52480;SDS011;38393;52.404;13.532;2023-07-30T12:01:38;3.60;;;1.92;;
52480;SDS011;38393;52.404;13.532;2023-07-30T12:04:07;6.70;;;1.88;;
52480;SDS011;38393;52.404;13.532;2023-07-30T12:06:39;4.47;;;1.95;;
52480;SDS011;38393;52.404;13.532;2023-07-30T12:09:15;4.35;;;2.10;;
52480;SDS011;38393;52.404;13.532;2023-07-30T12:11:57;4.30;;;1.80;;
52480;SDS011;38393;52.404;13.532;2023-07-30T12:14:25;3.50;;;2.05;;
52480;SDS011;38393;52.404;13.532;2023-07-30T12:17:06;6.05;;;2.20;;
52480;SDS011;38393;52.404;13.532;2023-07-30T12:19:32;3.92;;;1.77;;
52480;SDS011;38393;52.404;13.532;2023-07-30T12:21:58;3.88;;;1.70;;
52480;SDS011;38393;52.404;13.532;2023-07-30T12:24:23;5.13;;;2.22;;
52480;SDS011;38393;52.404;13.532;2023-07-30T12:26:49;4.15;;;1.92;;
52480;SDS011;38393;52.404;13.532;2023-07-30T12:29:14;6.90;;;2.00;;
52480;SDS011;38393;52.404;13.532;2023-07-30T12:31:40;5.32;;;2.10;;
52480;SDS011;38393;52.404;13.532;2023-07-30T12:34:05;4.93;;;1.90;;
52480;SDS011;38393;52.404;13.532;2023-07-30T12:36:30;4.78;;;1.80;;
52480;SDS011;38393;52.404;13.532;2023-07-30T12:38:56;4.47;;;1.90;;
52480;SDS011;38393;52.404;13.532;2023-07-30T12:41:21;4.60;;;2.03;;
52480;SDS011;38393;52.404;13.532;2023-07-30T12:43:51;5.10;;;2.10;;
52480;SDS011;38393;52.404;13.532;2023-07-30T12:46:18;4.18;;;1.88;;
52480;SDS011;38393;52.404;13.532;2023-07-30T12:48:44;4.47;;;2.00;;
52480;SDS011;38393;52.404;13.532;2023-07-30T12:51:09;3.78;;;2.20;;
52480;SDS011;38393;52.404;13.532;2023-07-30T12:53:35;3.03;;;1.88;;
52480;SDS011;38393;52.404;13.532;2023-07-30T12:56:00;6.50;;;2.20;;
52480;SDS011;38393;52.404;13.532;2023-07-30T12:58:26;6.50;;;2.30;;
52480;SDS011;38393;52.404;13.532;2023-07-30T13:00:51;5.30;;;2.58;;
52480;SDS011;38393;52.404;13.532;2023-07-30T13:03:17;5.38;;;2.13;;
52480;SDS011;38393;52.404;13.532;2023-07-30T13:05:42;5.07;;;2.22;;
52480;SDS011;38393;52.404;13.532;2023-07-30T13:08:08;4.07;;;2.17;;
52480;SDS011;38393;52.404;13.532;2023-07-30T13:10:33;4.38;;;2.05;;
52480;SDS011;38393;52.404;13.532;2023-07-30T13:13:00;4.60;;;2.20;;
52480;SDS011;38393;52.404;13.532;2023-07-30T13:15:25;4.93;;;2.20;;
52480;SDS011;38393;52.404;13.532;2023-07-30T13:17:52;4.55;;;2.10;;
52480;SDS011;38393;52.404;13.532;2023-07-30T13:20:18;2.97;;;1.80;;
52480;SDS011;38393;52.404;13.532;2023-07-30T13:22:43;4.13;;;2.00;;
52480;SDS011;38393;52.404;13.532;2023-07-30T13:25:09;5.40;;;2.40;;
52480;SDS011;38393;52.404;13.532;2023-07-30T13:27:34;4.68;;;2.28;;
52480;SDS011;38393;52.404;13.532;2023-07-30T13:30:00;3.35;;;2.20;;
52480;SDS011;38393;52.404;13.532;2023-07-30T13:32:25;5.13;;;2.47;;
52480;SDS011;38393;52.404;13.532;2023-07-30T13:34:51;3.92;;;2.10;;
52480;SDS011;38393;52.404;13.532;2023-07-30T13:37:16;5.03;;;2.10;;
52480;SDS011;38393;52.404;13.532;2023-07-30T13:39:41;4.60;;;2.30;;
52480;SDS011;38393;52.404;13.532;2023-07-30T13:42:07;3.63;;;2.30;;
52480;SDS011;38393;52.404;13.532;2023-07-30T13:44:32;3.67;;;2.60;;
52480;SDS011;38393;52.404;13.532;2023-07-30T13:46:58;4.38;;;2.30;;
52480;SDS011;38393;52.404;13.532;2023-07-30T13:49:23;6.78;;;2.58;;
52480;SDS011;38393;52.404;13.532;2023-07-30T13:51:49;3.08;;;2.20;;
52480;SDS011;38393;52.404;13.532;2023-07-30T13:54:14;4.35;;;2.30;;
52480;SDS011;38393;52.404;13.532;2023-07-30T13:56:40;4.15;;;2.35;;
52480;SDS011;38393;52.404;13.532;2023-07-30T13:59:05;3.03;;;2.45;;
52480;SDS011;38393;52.404;13.532;2023-07-30T14:01:31;4.50;;;2.75;;
52480;SDS011;38393;52.404;13.532;2023-07-30T14:03:56;3.35;;;2.40;;
52480;SDS011;38393;52.404;13.532;2023-07-30T14:06:23;3.63;;;2.30;;
52480;SDS011;38393;52.404;13.532;2023-07-30T14:08:48;4.78;;;2.10;;
52480;SDS011;38393;52.404;13.532;2023-07-30T14:11:14;4.03;;;2.20;;
52480;SDS011;38393;52.404;13.532;2023-07-30T14:13:39;3.50;;;2.00;;
52480;SDS011;38393;52.404;13.532;2023-07-30T14:16:05;3.67;;;2.13;;
52480;SDS011;38393;52.404;13.532;2023-07-30T14:18:30;3.58;;;2.10;;
52480;SDS011;38393;52.404;13.532;2023-07-30T14:20:58;3.17;;;1.80;;
52480;SDS011;38393;52.404;13.532;2023-07-30T14:23:23;2.75;;;1.80;;
52480;SDS011;38393;52.404;13.532;2023-07-30T14:25:49;5.85;;;2.25;;
52480;SDS011;38393;52.404;13.532;2023-07-30T14:28:14;2.45;;;1.60;;
52480;SDS011;38393;52.404;13.532;2023-07-30T14:30:40;3.10;;;1.50;;
52480;SDS011;38393;52.404;13.532;2023-07-30T14:33:09;5.53;;;1.60;;
52480;SDS011;38393;52.404;13.532;2023-07-30T14:35:35;2.70;;;1.45;;
52480;SDS011;38393;52.404;13.532;2023-07-30T14:38:02;3.08;;;1.50;;
52480;SDS011;38393;52.404;13.532;2023-07-30T14:40:28;2.13;;;1.17;;
52480;SDS011;38393;52.404;13.532;2023-07-30T14:42:54;4.43;;;1.48;;
52480;SDS011;38393;52.404;13.532;2023-07-30T14:45:20;4.22;;;1.40;;
52480;SDS011;38393;52.404;13.532;2023-07-30T14:47:45;2.20;;;1.20;;
52480;SDS011;38393;52.404;13.532;2023-07-30T14:50:11;4.43;;;1.52;;
52480;SDS011;38393;52.404;13.532;2023-07-30T14:52:36;4.32;;;1.50;;
52480;SDS011;38393;52.404;13.532;2023-07-30T14:55:02;2.65;;;1.40;;
52480;SDS011;38393;52.404;13.532;2023-07-30T14:57:28;3.95;;;1.70;;
52480;SDS011;38393;52.404;13.532;2023-07-30T14:59:55;4.38;;;1.90;;
52480;SDS011;38393;52.404;13.532;2023-07-30T15:02:21;10.32;;;2.00;;
52480;SDS011;38393;52.404;13.532;2023-07-30T15:04:46;5.65;;;1.83;;
52480;SDS011;38393;52.404;13.532;2023-07-30T15:07:12;4.57;;;2.20;;
52480;SDS011;38393;52.404;13.532;2023-07-30T15:09:38;10.18;;;2.25;;
52480;SDS011;38393;52.404;13.532;2023-07-30T15:12:03;4.05;;;2.28;;
52480;SDS011;38393;52.404;13.532;2023-07-30T15:14:31;7.72;;;2.03;;
52480;SDS011;38393;52.404;13.532;2023-07-30T15:16:57;8.15;;;2.30;;
52480;SDS011;38393;52.404;13.532;2023-07-30T15:19:22;4.53;;;2.10;;